Time;durP1;ratioP1;P1;durP2;ratioP2;P2;SDS_P1;SDS_P2;PMS_P1;PMS_P2;Temp;Humidity;BMP_temperature;BMP_pressure;BME280_temperature;BME280_humidity;BME280_pressure;Samples;Min_cycle;Max_cycle;Signal;HPM_P1;HPM_P2
2023/01/14 00:01:22;;;;;;;12.83;9.07;;;3.10;99.90;;;;;;5057432;28;20902;-52
2023/01/14 00:03:50;;;;;;;10.50;8.93;;;3.20;99.90;;;;;;5055840;28;20475;-54
2023/01/14 00:06:19;;;;;;;10.30;9.20;;;3.20;99.90;;;;;;5047204;28;20508;-52
2023/01/14 00:08:46;;;;;;;9.23;8.20;;;3.20;99.90;;;;;;5056047;28;20920;-52
2023/01/14 00:11:15;;;;;;;9.83;8.90;;;3.20;99.90;;;;;;5059834;28;20509;-52
2023/01/14 00:13:43;;;;;;;12.50;9.77;;;3.20;99.90;;;;;;5041467;28;20522;-52
2023/01/14 00:16:13;;;;;;;9.57;7.97;;;3.30;99.90;;;;;;5058414;28;20451;-52
2023/01/14 00:18:42;;;;;;;10.50;8.90;;;3.40;99.90;;;;;;5058725;28;21010;-52
2023/01/14 00:21:12;;;;;;;10.13;9.07;;;3.40;99.90;;;;;;5070657;28;20469;-54
2023/01/14 00:23:39;;;;;;;9.20;8.30;;;3.40;99.90;;;;;;5042000;28;20937;-53
2023/01/14 00:26:08;;;;;;;10.43;9.37;;;3.40;99.90;;;;;;5075251;28;20536;-52
2023/01/14 00:28:35;;;;;;;10.33;9.17;;;3.50;99.90;;;;;;5075120;28;20488;-52
2023/01/14 00:31:07;;;;;;;9.33;8.43;;;3.60;99.90;;;;;;5060069;28;20522;-53
2023/01/14 00:33:35;;;;;;;11.83;8.47;;;3.50;99.90;;;;;;5071366;28;20470;-52
2023/01/14 00:36:04;;;;;;;9.17;7.90;;;3.70;99.90;;;;;;5143992;22;20580;-49
2023/01/14 00:38:31;;;;;;;9.03;8.17;;;3.60;99.90;;;;;;5091746;28;20509;-49
2023/01/14 00:41:02;;;;;;;9.03;8.13;;;3.60;99.90;;;;;;5092502;28;20986;-49
2023/01/14 00:43:29;;;;;;;8.77;7.87;;;3.70;99.90;;;;;;5090085;28;20873;-49
2023/01/14 00:45:56;;;;;;;9.33;8.33;;;3.70;99.90;;;;;;5075440;28;20511;-48
2023/01/14 00:48:23;;;;;;;7.80;6.80;;;3.60;99.90;;;;;;5070883;28;20479;-49
2023/01/14 00:50:50;;;;;;;7.97;7.20;;;3.60;99.90;;;;;;5072022;28;20468;-49
2023/01/14 00:53:19;;;;;;;9.27;7.13;;;3.40;99.90;;;;;;5070505;28;20521;-49
2023/01/14 00:55:46;;;;;;;8.10;7.30;;;3.40;99.90;;;;;;5071531;28;20486;-49
2023/01/14 00:58:13;;;;;;;8.47;6.13;;;3.40;99.90;;;;;;5071675;28;20469;-48
2023/01/14 01:00:39;;;;;;;7.23;6.53;;;3.40;99.90;;;;;;5069615;28;20895;-51
2023/01/14 01:03:06;;;;;;;8.13;5.80;;;3.40;99.90;;;;;;5070762;28;20485;-48
2023/01/14 01:05:36;;;;;;;4.67;4.27;;;3.30;99.90;;;;;;5069147;28;21022;-50
2023/01/14 01:08:04;;;;;;;5.10;4.17;;;3.30;99.90;;;;;;5070774;28;20482;-49
2023/01/14 01:10:34;;;;;;;4.93;4.43;;;3.30;99.90;;;;;;5070406;28;20528;-48
2023/01/14 01:13:01;;;;;;;7.20;4.53;;;3.30;99.90;;;;;;5069159;28;20970;-49
2023/01/14 01:15:28;;;;;;;4.10;3.70;;;3.40;99.90;;;;;;5069090;28;20498;-48
2023/01/14 01:17:55;;;;;;;4.03;3.57;;;3.40;99.90;;;;;;5068724;28;20490;-49
2023/01/14 01:20:22;;;;;;;4.30;3.90;;;3.40;99.90;;;;;;5069527;28;20529;-48
2023/01/14 01:22:49;;;;;;;4.47;4.00;;;3.30;99.90;;;;;;5070176;28;20946;-49
2023/01/14 01:25:16;;;;;;;4.40;3.60;;;3.30;99.90;;;;;;5068983;28;20469;-49
2023/01/14 01:27:44;;;;;;;4.00;3.50;;;3.30;99.90;;;;;;5071109;28;20529;-48
2023/01/14 01:30:12;;;;;;;3.70;3.40;;;3.40;99.90;;;;;;5071453;28;21013;-48
2023/01/14 01:32:39;;;;;;;4.33;3.90;;;3.50;99.90;;;;;;5071177;28;20536;-48
2023/01/14 01:35:06;;;;;;;3.47;3.13;;;3.50;99.90;;;;;;5069840;28;20557;-50
2023/01/14 01:37:34;;;;;;;3.67;3.20;;;3.40;99.90;;;;;;5071100;28;20533;-50
2023/01/14 01:40:00;;;;;;;3.63;3.33;;;3.30;99.90;;;;;;5070974;28;20524;-49
2023/01/14 01:42:29;;;;;;;3.63;3.33;;;3.40;99.90;;;;;;5070079;28;20447;-48
2023/01/14 01:45:21;;;;;;;3.43;3.13;;;3.10;99.90;;;;;;5070081;28;20474;-48
2023/01/14 01:47:51;;;;;;;3.77;3.10;;;3.10;99.90;;;;;;5071051;28;20876;-48
2023/01/14 01:50:18;;;;;;;2.80;2.60;;;3.10;99.90;;;;;;5070967;28;20962;-51
2023/01/14 01:52:46;;;;;;;2.60;2.40;;;2.90;99.90;;;;;;5060910;28;20906;-49
2023/01/14 01:55:14;;;;;;;3.13;2.10;;;2.80;99.90;;;;;;5068192;28;21045;-48
2023/01/14 01:57:42;;;;;;;2.33;1.90;;;2.80;99.90;;;;;;5070638;28;20466;-48
2023/01/14 02:00:12;;;;;;;4.70;2.20;;;2.90;99.90;;;;;;5069774;28;20467;-48
2023/01/14 02:02:39;;;;;;;2.30;1.97;;;2.90;99.90;;;;;;5070739;28;20442;-51
2023/01/14 02:05:07;;;;;;;4.30;2.40;;;2.80;99.90;;;;;;5069985;28;20508;-49
2023/01/14 02:07:34;;;;;;;1.73;1.60;;;2.50;99.90;;;;;;5070927;28;20482;-49
2023/01/14 02:10:04;;;;;;;1.70;1.40;;;2.60;99.90;;;;;;5070901;28;20540;-48
2023/01/14 02:12:57;;;;;;;3.50;3.13;;;2.70;99.90;;;;;;5070655;28;20486;-48
2023/01/14 02:15:38;;;;;;;2.07;1.80;;;2.80;99.90;;;;;;5074300;28;20494;-48
2023/01/14 02:18:17;;;;;;;2.10;1.63;;;2.90;99.90;;;;;;5074077;28;20946;-48
2023/01/14 02:20:48;;;;;;;3.27;2.47;;;3.00;99.90;;;;;;5074007;28;20813;-49
2023/01/14 02:23:45;;;;;;;2.70;2.50;;;2.90;99.90;;;;;;5072159;28;20519;-48
2023/01/14 02:26:37;;;;;;;2.50;2.03;;;2.70;99.90;;;;;;5072734;28;20476;-49
2023/01/14 02:29:33;;;;;;;3.67;2.50;;;2.60;99.90;;;;;;5073345;28;20477;-48
2023/01/14 02:32:07;;;;;;;2.83;2.20;;;2.70;99.90;;;;;;5072761;28;21002;-49
2023/01/14 02:34:42;;;;;;;4.30;3.70;;;2.90;99.90;;;;;;5071976;28;20492;-48
2023/01/14 02:37:13;;;;;;;3.30;3.00;;;3.00;99.90;;;;;;5073773;28;20531;-49
2023/01/14 02:39:45;;;;;;;3.90;2.77;;;3.00;99.90;;;;;;5074289;28;20888;-48
2023/01/14 02:45:13;;;;;;;3.20;2.73;;;2.90;99.90;;;;;;5073374;28;20472;-48
2023/01/14 02:47:42;;;;;;;3.23;2.97;;;2.90;99.90;;;;;;5073902;28;20522;-48
2023/01/14 02:50:12;;;;;;;3.43;2.23;;;2.90;99.90;;;;;;5074240;28;20533;-49
2023/01/14 02:52:39;;;;;;;3.80;2.63;;;2.80;99.90;;;;;;5074613;28;20488;-49
2023/01/14 02:55:28;;;;;;;2.70;2.50;;;2.80;99.90;;;;;;5073356;28;20547;-48
2023/01/14 02:58:07;;;;;;;3.40;2.70;;;2.50;99.90;;;;;;5070976;28;20469;-50
2023/01/14 03:00:43;;;;;;;3.00;2.80;;;2.20;99.90;;;;;;5071881;28;20495;-48
2023/01/14 03:03:25;;;;;;;4.33;3.50;;;2.20;99.90;;;;;;5073605;28;20528;-48
2023/01/14 03:06:11;;;;;;;1.87;1.67;;;2.40;99.90;;;;;;5060794;28;20483;-48
2023/01/14 03:08:47;;;;;;;5.53;4.20;;;2.40;99.90;;;;;;5073508;28;20981;-48
2023/01/14 03:11:14;;;;;;;5.30;4.20;;;2.50;99.90;;;;;;5074038;28;20530;-49
2023/01/14 03:13:47;;;;;;;8.33;5.93;;;2.50;99.90;;;;;;5073129;28;20713;-49
2023/01/14 03:16:23;;;;;;;4.23;3.80;;;2.40;99.90;;;;;;5073875;28;20549;-48
2023/01/14 03:18:58;;;;;;;4.50;3.40;;;2.30;99.90;;;;;;5071744;28;20506;-49
2023/01/14 03:21:30;;;;;;;3.10;2.80;;;2.40;99.90;;;;;;5072549;28;20532;-49
2023/01/14 03:24:01;;;;;;;3.77;2.50;;;2.30;99.90;;;;;;5070855;28;20467;-48
2023/01/14 03:26:32;;;;;;;4.30;3.47;;;2.00;99.90;;;;;;5071955;28;20477;-50
2023/01/14 03:29:03;;;;;;;3.20;2.90;;;1.80;99.90;;;;;;5071825;28;20531;-49
2023/01/14 03:31:35;;;;;;;4.30;3.43;;;1.80;99.90;;;;;;5072028;28;20498;-49
2023/01/14 03:34:06;;;;;;;4.73;3.60;;;1.90;99.90;;;;;;5071274;28;20468;-49
2023/01/14 03:36:37;;;;;;;3.33;2.90;;;2.00;99.90;;;;;;5073521;28;20520;-49
2023/01/14 03:39:08;;;;;;;3.83;3.30;;;2.00;99.90;;;;;;5073367;28;20464;-49
2023/01/14 03:44:27;;;;;;;3.47;3.17;;;2.30;99.90;;;;;;5072264;28;20618;-49
2023/01/14 03:46:56;;;;;;;3.83;3.43;;;2.50;99.90;;;;;;5073272;28;20906;-50
2023/01/14 03:49:23;;;;;;;2.83;2.53;;;2.50;99.90;;;;;;5072132;28;20496;-49
2023/01/14 03:51:55;;;;;;;2.93;2.40;;;2.50;99.90;;;;;;5072898;28;20480;-50
2023/01/14 03:54:27;;;;;;;4.43;3.30;;;2.40;99.90;;;;;;5072020;28;20497;-49
2023/01/14 03:56:59;;;;;;;3.13;2.83;;;2.30;99.90;;;;;;5073087;28;20480;-50
2023/01/14 03:59:33;;;;;;;3.60;3.30;;;2.20;99.90;;;;;;5070642;28;20962;-48
2023/01/14 04:02:03;;;;;;;4.37;3.50;;;2.10;99.90;;;;;;5068420;28;20891;-48
2023/01/14 04:04:32;;;;;;;5.20;4.70;;;2.00;99.90;;;;;;5072394;28;20465;-48
2023/01/14 04:06:59;;;;;;;5.40;4.90;;;1.90;99.90;;;;;;5072491;28;20552;-49
2023/01/14 04:09:25;;;;;;;5.40;4.40;;;2.00;99.90;;;;;;5072941;28;20449;-48
2023/01/14 04:11:52;;;;;;;5.73;4.20;;;2.00;99.90;;;;;;5072926;28;20520;-48
2023/01/14 04:17:05;;;;;;;4.43;3.70;;;2.10;99.90;;;;;;5071532;28;20435;-51
2023/01/14 04:19:32;;;;;;;4.77;3.60;;;2.20;99.90;;;;;;5072601;28;20469;-51
2023/01/14 04:21:59;;;;;;;4.50;3.60;;;2.30;99.90;;;;;;5072323;28;20537;-49
2023/01/14 04:24:26;;;;;;;7.30;5.60;;;2.40;99.90;;;;;;5071353;28;20505;-48
2023/01/14 04:26:52;;;;;;;6.33;4.97;;;2.40;99.90;;;;;;5072413;28;21013;-49
2023/01/14 04:29:20;;;;;;;4.37;3.97;;;2.40;99.90;;;;;;5072045;28;20469;-48
2023/01/14 04:31:47;;;;;;;3.53;2.87;;;2.40;99.90;;;;;;5070611;28;21024;-49
2023/01/14 04:34:15;;;;;;;5.20;4.80;;;2.50;99.90;;;;;;5069699;28;20465;-48
2023/01/14 04:36:42;;;;;;;5.83;5.30;;;2.40;99.90;;;;;;5069670;28;20472;-49
2023/01/14 04:39:09;;;;;;;5.90;5.40;;;2.50;99.90;;;;;;5070676;28;20898;-50
2023/01/14 04:44:20;;;;;;;7.10;5.80;;;2.40;99.90;;;;;;5070152;28;20481;-48
2023/01/14 04:46:47;;;;;;;6.37;5.77;;;2.40;99.90;;;;;;5071728;28;20504;-49
2023/01/14 04:49:15;;;;;;;5.63;5.00;;;2.40;99.90;;;;;;5071722;28;21029;-49
2023/01/14 04:51:42;;;;;;;7.77;7.00;;;2.30;99.90;;;;;;5072215;28;20473;-49
2023/01/14 04:54:09;;;;;;;8.77;7.90;;;2.20;99.90;;;;;;5066728;28;20481;-49
2023/01/14 04:56:35;;;;;;;6.27;5.67;;;2.10;99.90;;;;;;5066255;28;20991;-48
2023/01/14 04:59:03;;;;;;;5.27;4.60;;;2.10;99.90;;;;;;5070324;28;20473;-49
2023/01/14 05:01:30;;;;;;;5.90;4.90;;;2.10;99.90;;;;;;5071723;28;21119;-50
2023/01/14 05:03:58;;;;;;;6.43;5.83;;;2.20;99.90;;;;;;5070695;28;20524;-49
2023/01/14 05:06:27;;;;;;;5.53;4.33;;;2.30;99.90;;;;;;5071418;28;20472;-49
2023/01/14 05:08:54;;;;;;;3.27;2.97;;;2.30;99.90;;;;;;5071065;28;21098;-49
2023/01/14 05:11:21;;;;;;;3.80;2.33;;;2.30;99.90;;;;;;5070193;28;20524;-51
2023/01/14 05:13:48;;;;;;;5.97;5.30;;;2.20;99.90;;;;;;5069421;28;20916;-48
2023/01/14 05:16:17;;;;;;;4.90;4.37;;;2.10;99.90;;;;;;5069614;28;20857;-49
2023/01/14 05:18:44;;;;;;;6.13;4.50;;;2.10;99.90;;;;;;5069109;28;20934;-48
2023/01/14 05:21:11;;;;;;;5.90;4.80;;;2.20;99.90;;;;;;5069812;28;20536;-48
2023/01/14 05:23:39;;;;;;;5.10;4.60;;;2.10;99.90;;;;;;5069305;28;20485;-49
2023/01/14 05:26:07;;;;;;;4.50;3.80;;;2.00;99.90;;;;;;5070515;28;20563;-51
2023/01/14 05:28:34;;;;;;;5.10;4.57;;;2.00;99.90;;;;;;5070822;28;20933;-48
2023/01/14 05:31:01;;;;;;;4.60;4.20;;;2.00;99.90;;;;;;5070460;28;20946;-48
2023/01/14 05:33:27;;;;;;;3.40;2.57;;;2.00;99.90;;;;;;5068728;28;20492;-49
2023/01/14 05:35:56;;;;;;;2.80;2.00;;;2.00;99.90;;;;;;5069580;28;20556;-49
2023/01/14 05:38:23;;;;;;;3.70;3.40;;;2.10;99.90;;;;;;5069458;28;20437;-49
2023/01/14 05:40:52;;;;;;;5.30;3.60;;;2.10;99.90;;;;;;5070078;28;20866;-48
2023/01/14 05:46:07;;;;;;;2.80;2.60;;;1.70;99.90;;;;;;5069785;28;20567;-48
2023/01/14 05:48:34;;;;;;;3.20;2.80;;;1.80;99.90;;;;;;5070979;28;20530;-48
2023/01/14 05:51:03;;;;;;;1.77;1.37;;;1.80;99.90;;;;;;5070758;28;20703;-47
2023/01/14 05:53:30;;;;;;;2.23;1.83;;;1.80;99.90;;;;;;5051053;28;20472;-49
2023/01/14 05:55:59;;;;;;;3.60;2.70;;;1.80;99.90;;;;;;5067334;28;20886;-48
2023/01/14 05:58:27;;;;;;;2.90;2.37;;;1.60;99.90;;;;;;5070672;28;20473;-50
2023/01/14 06:06:35;;;;;;;9.50;6.60;;;1.70;99.90;;;;;;5020323;28;20504;-48
2023/01/14 06:09:04;;;;;;;7.80;5.60;;;1.80;99.90;;;;;;5069187;28;20531;-49
2023/01/14 06:11:33;;;;;;;6.80;5.10;;;1.50;99.90;;;;;;5069069;28;21026;-49
2023/01/14 06:14:01;;;;;;;2.23;1.40;;;1.30;99.90;;;;;;5068269;28;20954;-48
2023/01/14 06:16:30;;;;;;;1.50;1.27;;;1.50;99.90;;;;;;5052015;28;20438;-48
2023/01/14 06:18:57;;;;;;;1.53;1.43;;;1.70;99.90;;;;;;5070009;28;20452;-51
2023/01/14 06:21:28;;;;;;;3.40;2.00;;;1.80;99.90;;;;;;5070762;28;20529;-48
2023/01/14 06:23:56;;;;;;;1.90;1.70;;;1.90;99.90;;;;;;5070204;28;20444;-48
2023/01/14 06:26:27;;;;;;;2.30;2.10;;;1.80;99.90;;;;;;5070665;28;20502;-49
2023/01/14 06:28:57;;;;;;;3.50;2.67;;;1.80;99.90;;;;;;5070257;28;20441;-51
2023/01/14 06:31:25;;;;;;;5.03;3.10;;;1.70;99.90;;;;;;5070206;28;20445;-48
2023/01/14 06:33:52;;;;;;;4.83;4.10;;;1.50;99.90;;;;;;5056926;28;20480;-48
2023/01/14 06:36:19;;;;;;;3.50;2.63;;;1.60;99.90;;;;;;5150816;22;20519;-51
2023/01/14 06:38:46;;;;;;;2.77;2.23;;;1.50;99.90;;;;;;5091396;28;21036;-51
2023/01/14 06:41:13;;;;;;;3.10;2.07;;;1.50;99.90;;;;;;5092545;28;20471;-52
2023/01/14 06:43:42;;;;;;;2.33;2.17;;;1.50;99.90;;;;;;5091823;28;20447;-51
2023/01/14 06:46:11;;;;;;;2.00;1.67;;;1.50;99.90;;;;;;5076432;28;20591;-54
2023/01/14 06:48:38;;;;;;;1.70;1.53;;;1.70;99.90;;;;;;5070789;28;20636;-53
2023/01/14 06:51:06;;;;;;;1.47;1.17;;;1.70;99.90;;;;;;5070939;28;20469;-53
2023/01/14 06:53:33;;;;;;;2.20;1.90;;;1.70;99.90;;;;;;5070099;28;20723;-53
2023/01/14 06:56:04;;;;;;;2.37;2.17;;;1.50;99.90;;;;;;5069770;28;20521;-51
2023/01/14 06:58:31;;;;;;;2.10;1.80;;;1.40;99.90;;;;;;5070383;28;20632;-52
2023/01/14 07:01:00;;;;;;;3.27;2.00;;;1.50;99.90;;;;;;5072956;28;20518;-52
2023/01/14 07:03:29;;;;;;;5.97;5.43;;;1.40;99.90;;;;;;5074360;28;20444;-52
2023/01/14 07:05:56;;;;;;;5.90;3.23;;;1.60;99.90;;;;;;5075557;28;20496;-52
2023/01/14 07:08:23;;;;;;;4.60;1.77;;;1.60;99.90;;;;;;5074022;28;20506;-51
2023/01/14 07:10:50;;;;;;;7.43;5.73;;;1.60;99.90;;;;;;5073418;28;20530;-51
2023/01/14 07:13:18;;;;;;;5.80;5.27;;;1.60;99.90;;;;;;5074401;28;20566;-51
2023/01/14 07:15:45;;;;;;;9.17;5.93;;;1.60;99.90;;;;;;5075369;28;20455;-52
2023/01/14 07:18:12;;;;;;;8.90;5.63;;;1.60;99.90;;;;;;5074919;28;20523;-51
2023/01/14 07:20:41;;;;;;;6.70;5.43;;;1.30;99.90;;;;;;5074795;28;20445;-51
2023/01/14 07:23:08;;;;;;;6.90;6.10;;;1.30;99.90;;;;;;5074417;28;20885;-52
2023/01/14 07:25:36;;;;;;;5.30;4.20;;;1.20;99.90;;;;;;5073215;28;20553;-53
2023/01/14 07:28:04;;;;;;;7.67;6.20;;;1.20;99.90;;;;;;5073388;28;20563;-52
2023/01/14 07:30:31;;;;;;;3.60;3.23;;;1.30;99.90;;;;;;5073651;28;20502;-51
2023/01/14 07:32:59;;;;;;;4.90;3.47;;;1.40;99.90;;;;;;5072170;28;21065;-54
2023/01/14 07:35:26;;;;;;;4.80;2.77;;;1.50;99.90;;;;;;5035090;28;1105106;-54
2023/01/14 07:37:56;;;;;;;3.73;3.00;;;1.70;99.90;;;;;;5074803;28;20720;-51
2023/01/14 07:40:23;;;;;;;3.53;2.40;;;1.70;99.90;;;;;;5074383;28;20437;-51
2023/01/14 07:42:55;;;;;;;3.77;3.00;;;1.70;99.90;;;;;;5074952;28;20532;-51
2023/01/14 07:45:22;;;;;;;3.37;2.13;;;1.40;99.90;;;;;;5075491;28;20461;-52
2023/01/14 07:47:49;;;;;;;3.40;2.60;;;1.30;99.90;;;;;;5075619;28;20505;-51
2023/01/14 07:50:17;;;;;;;2.63;2.20;;;0.90;99.90;;;;;;5066976;28;20867;-51
2023/01/14 07:52:44;;;;;;;3.23;2.60;;;1.10;99.90;;;;;;5056141;28;20516;-52
2023/01/14 07:55:12;;;;;;;2.33;2.13;;;1.20;99.90;;;;;;5069316;28;20544;-52
2023/01/14 07:57:39;;;;;;;2.40;2.20;;;1.30;99.90;;;;;;5076237;28;20437;-52
2023/01/14 08:00:08;;;;;;;2.30;1.87;;;1.30;99.90;;;;;;5075374;28;20468;-51
2023/01/14 08:02:36;;;;;;;5.97;3.90;;;1.50;99.90;;;;;;5074901;28;20469;-52
2023/01/14 08:05:04;;;;;;;11.80;10.60;;;1.60;99.90;;;;;;5073984;28;20497;-52
2023/01/14 08:07:31;;;;;;;10.60;9.60;;;1.40;99.90;;;;;;5068765;28;20504;-52
2023/01/14 08:09:58;;;;;;;5.43;4.93;;;1.00;99.90;;;;;;5063417;28;20477;-53
2023/01/14 08:12:28;;;;;;;3.37;3.07;;;1.10;99.90;;;;;;5064110;28;20466;-52
2023/01/14 08:14:55;;;;;;;3.53;2.90;;;1.30;99.90;;;;;;5060585;28;20472;-52
2023/01/14 08:17:22;;;;;;;3.33;3.03;;;1.30;99.90;;;;;;5064055;28;20460;-52
2023/01/14 08:19:49;;;;;;;6.30;3.27;;;1.20;99.90;;;;;;5073034;28;20536;-53
2023/01/14 08:22:15;;;;;;;2.27;2.07;;;1.20;99.90;;;;;;5067619;28;20528;-50
2023/01/14 08:24:42;;;;;;;3.73;3.40;;;1.10;99.90;;;;;;5063497;28;20477;-51
2023/01/14 08:27:09;;;;;;;2.90;2.70;;;1.10;99.90;;;;;;5058400;28;20561;-54
2023/01/14 08:29:37;;;;;;;4.00;3.03;;;0.90;99.90;;;;;;5062165;28;20441;-51
2023/01/14 08:32:05;;;;;;;4.00;3.47;;;0.90;99.90;;;;;;5057735;28;20529;-53
2023/01/14 08:34:32;;;;;;;5.37;3.60;;;1.00;99.90;;;;;;5061890;28;21146;-51
2023/01/14 08:36:59;;;;;;;3.70;3.37;;;1.00;99.90;;;;;;5065385;28;20487;-52
2023/01/14 08:39:26;;;;;;;2.30;2.07;;;1.00;99.90;;;;;;5058816;28;20543;-52
2023/01/14 08:41:53;;;;;;;2.17;1.10;;;1.00;99.90;;;;;;5068146;28;20531;-55
2023/01/14 08:44:20;;;;;;;1.93;1.73;;;1.10;99.90;;;;;;5067371;28;20472;-51
2023/01/14 08:46:48;;;;;;;1.50;1.30;;;1.00;99.90;;;;;;5059643;28;20504;-54
2023/01/14 08:49:15;;;;;;;1.50;1.40;;;1.00;99.90;;;;;;5060794;28;20450;-51
2023/01/14 08:51:42;;;;;;;6.77;4.43;;;1.30;99.90;;;;;;5061158;28;21001;-52
2023/01/14 08:54:09;;;;;;;16.03;9.70;;;1.30;99.90;;;;;;5052978;28;20463;-54
2023/01/14 08:56:35;;;;;;;16.60;12.23;;;1.20;99.90;;;;;;5059658;28;20468;-52
2023/01/14 08:59:03;;;;;;;9.70;7.20;;;1.20;99.90;;;;;;5055222;28;20472;-51
2023/01/14 09:01:30;;;;;;;7.53;6.80;;;1.00;99.90;;;;;;5064223;28;20518;-53
2023/01/14 09:04:00;;;;;;;9.53;7.57;;;0.90;99.90;;;;;;5060853;28;20446;-52
2023/01/14 09:06:27;;;;;;;10.93;7.63;;;1.00;99.90;;;;;;5064335;28;20465;-52
2023/01/14 09:17:15;;;;;;;5.33;4.13;;;1.40;99.90;;;;;;5067321;28;21028;-53
2023/01/14 09:19:46;;;;;;;15.40;11.10;;;1.50;99.90;;;;;;5068987;28;20888;-55
2023/01/14 09:22:16;;;;;;;4.03;3.63;;;1.30;99.90;;;;;;5068897;28;20856;-53
2023/01/14 09:24:43;;;;;;;10.97;6.13;;;1.20;99.90;;;;;;5067859;28;20509;-51
2023/01/14 09:27:10;;;;;;;3.50;2.63;;;1.10;99.90;;;;;;5062595;28;20484;-53
2023/01/14 09:29:37;;;;;;;4.33;3.00;;;1.10;99.90;;;;;;5062948;28;20528;-53
2023/01/14 09:32:07;;;;;;;5.73;4.33;;;1.20;99.90;;;;;;5069474;28;20534;-52
2023/01/14 09:34:34;;;;;;;6.40;4.30;;;1.20;99.90;;;;;;5068189;28;20728;-51
2023/01/14 09:37:02;;;;;;;4.57;3.20;;;1.50;99.90;;;;;;5066155;28;20503;-54
2023/01/14 09:39:29;;;;;;;9.17;7.63;;;1.50;99.90;;;;;;5066793;28;20469;-54
2023/01/14 09:41:59;;;;;;;6.77;5.30;;;1.60;99.90;;;;;;5065289;28;20543;-52
2023/01/14 09:44:27;;;;;;;5.60;5.10;;;1.80;99.90;;;;;;5065425;28;20453;-52
2023/01/14 09:46:54;;;;;;;3.50;1.50;;;1.80;99.90;;;;;;5056929;28;20473;-53
2023/01/14 09:49:25;;;;;;;3.20;2.90;;;1.80;99.90;;;;;;5064388;28;20489;-52
2023/01/14 09:52:23;;;;;;;6.00;5.50;;;1.80;99.90;;;;;;5063843;28;20512;-52
2023/01/14 09:54:58;;;;;;;2.83;2.47;;;1.70;99.90;;;;;;5067910;28;20552;-52
2023/01/14 09:57:42;;;;;;;4.00;3.40;;;1.60;99.90;;;;;;5058267;28;20461;-52
2023/01/14 10:00:28;;;;;;;1.87;1.53;;;1.50;99.90;;;;;;5064606;28;20452;-55
2023/01/14 10:03:04;;;;;;;4.83;3.00;;;1.20;99.90;;;;;;5068730;28;20904;-53
2023/01/14 10:05:34;;;;;;;1.97;1.57;;;1.20;99.90;;;;;;5068759;28;20882;-52
2023/01/14 10:08:05;;;;;;;3.83;2.70;;;1.30;99.90;;;;;;5069494;28;20506;-54
2023/01/14 10:10:36;;;;;;;5.07;3.10;;;1.40;99.90;;;;;;5069416;28;20511;-53
2023/01/14 10:13:07;;;;;;;4.90;3.37;;;1.50;99.90;;;;;;5059492;28;20444;-51
2023/01/14 10:15:38;;;;;;;3.20;2.80;;;1.60;99.90;;;;;;5064702;28;20521;-51
2023/01/14 10:18:14;;;;;;;2.27;2.07;;;1.80;99.90;;;;;;5069264;28;20519;-51
2023/01/14 10:20:54;;;;;;;3.87;2.50;;;2.00;99.90;;;;;;5066129;28;20473;-51
2023/01/14 10:23:26;;;;;;;3.10;1.60;;;2.20;99.90;;;;;;5068738;28;20499;-51
2023/01/14 10:25:55;;;;;;;13.07;11.13;;;2.40;99.90;;;;;;5068760;28;20488;-51
2023/01/14 10:28:24;;;;;;;3.93;3.27;;;2.40;99.90;;;;;;5069285;28;20978;-51
2023/01/14 10:30:52;;;;;;;4.37;1.60;;;2.50;99.90;;;;;;5069805;28;20453;-52
2023/01/14 10:33:21;;;;;;;2.20;1.70;;;2.80;99.90;;;;;;5068183;28;20461;-52
2023/01/14 10:35:53;;;;;;;2.77;1.60;;;3.10;99.90;;;;;;5072351;28;20975;-51
2023/01/14 10:38:24;;;;;;;3.80;2.80;;;3.10;99.90;;;;;;5073569;28;20448;-54
2023/01/14 10:40:54;;;;;;;3.03;2.37;;;3.10;99.90;;;;;;5068745;28;20521;-52
2023/01/14 10:43:29;;;;;;;2.83;1.43;;;3.20;99.90;;;;;;5068115;28;20518;-53
2023/01/14 10:45:56;;;;;;;2.00;1.70;;;3.30;99.90;;;;;;5070026;28;20460;-50
2023/01/14 10:48:25;;;;;;;3.57;2.30;;;3.40;99.90;;;;;;5069842;28;20513;-51
2023/01/14 10:50:52;;;;;;;1.70;1.30;;;3.50;99.90;;;;;;5065958;28;20863;-53
2023/01/14 10:53:21;;;;;;;1.40;1.07;;;3.40;99.90;;;;;;5067540;28;20529;-52
2023/01/14 10:55:54;;;;;;;8.80;6.33;;;3.50;99.90;;;;;;5062957;28;20549;-53
2023/01/14 10:58:29;;;;;;;3.33;3.03;;;3.70;99.90;;;;;;5066141;28;20487;-51
2023/01/14 11:01:03;;;;;;;2.10;1.70;;;3.80;99.90;;;;;;5066746;28;20450;-54
2023/01/14 11:03:32;;;;;;;2.97;2.50;;;3.50;99.90;;;;;;5065532;28;20448;-50
2023/01/14 11:06:02;;;;;;;2.27;1.67;;;3.40;99.90;;;;;;5065878;28;20487;-53
2023/01/14 11:08:34;;;;;;;3.40;2.70;;;3.50;99.90;;;;;;5070494;28;21021;-52
2023/01/14 11:11:06;;;;;;;2.83;2.53;;;3.60;99.90;;;;;;5067306;28;21034;-52
2023/01/14 11:13:36;;;;;;;3.10;2.80;;;3.70;99.90;;;;;;5066401;28;20476;-51
2023/01/14 11:16:03;;;;;;;3.50;2.30;;;3.70;99.90;;;;;;5068252;28;20545;-51
2023/01/14 11:18:32;;;;;;;3.07;2.77;;;3.60;99.90;;;;;;5069134;28;20508;-52
2023/01/14 11:21:08;;;;;;;3.83;3.50;;;3.70;99.90;;;;;;5066867;28;20503;-51
2023/01/14 11:23:38;;;;;;;4.20;3.30;;;3.80;99.90;;;;;;5063871;28;20954;-51
2023/01/14 11:26:10;;;;;;;4.53;3.13;;;4.00;99.90;;;;;;5062232;28;20538;-53
2023/01/14 11:28:39;;;;;;;3.50;3.17;;;3.90;99.90;;;;;;5070312;28;20476;-52
2023/01/14 11:31:07;;;;;;;5.27;3.57;;;3.80;99.90;;;;;;5065169;28;20537;-53
2023/01/14 11:33:34;;;;;;;3.33;2.63;;;3.90;99.90;;;;;;5062368;28;20443;-53
2023/01/14 11:36:08;;;;;;;3.00;2.70;;;3.80;99.90;;;;;;5072378;28;21002;-52
2023/01/14 11:38:44;;;;;;;2.80;2.40;;;4.00;99.90;;;;;;5074600;28;20718;-52
2023/01/14 11:41:30;;;;;;;4.33;3.63;;;4.20;99.90;;;;;;5071876;28;20485;-53
2023/01/14 11:43:59;;;;;;;3.60;3.20;;;4.30;99.90;;;;;;5060471;28;20474;-52
2023/01/14 11:46:26;;;;;;;3.90;3.47;;;4.30;99.90;;;;;;5054641;28;20882;-52
2023/01/14 11:49:02;;;;;;;4.07;3.27;;;4.30;99.90;;;;;;5062946;28;20510;-52
2023/01/14 11:51:30;;;;;;;3.80;2.87;;;4.40;99.90;;;;;;5063799;28;20452;-55
2023/01/14 11:53:57;;;;;;;4.73;2.43;;;4.50;99.90;;;;;;5063322;28;20453;-52
2023/01/14 11:56:33;;;;;;;3.40;2.80;;;4.50;99.90;;;;;;5065589;28;20530;-51
2023/01/14 11:59:03;;;;;;;2.40;2.20;;;4.40;99.90;;;;;;5069087;28;20463;-52
2023/01/14 12:01:36;;;;;;;3.00;1.80;;;4.40;99.90;;;;;;5070639;28;20484;-53
2023/01/14 12:04:15;;;;;;;3.10;2.20;;;4.50;99.90;;;;;;5066035;28;20536;-50
2023/01/14 12:06:46;;;;;;;2.67;2.20;;;4.70;99.90;;;;;;5071913;28;20567;-52
2023/01/14 12:09:21;;;;;;;3.23;2.57;;;4.70;99.90;;;;;;5070950;28;20475;-51
2023/01/14 12:11:57;;;;;;;3.40;2.20;;;4.70;99.90;;;;;;5067489;28;20454;-52
2023/01/14 12:17:24;;;;;;;3.37;3.00;;;4.90;99.90;;;;;;5072009;28;20467;-53
2023/01/14 12:19:57;;;;;;;2.20;1.60;;;4.90;99.90;;;;;;5067580;28;20455;-51
2023/01/14 12:22:30;;;;;;;2.47;2.10;;;4.80;99.90;;;;;;5066813;28;20458;-52
2023/01/14 12:25:12;;;;;;;3.10;2.17;;;4.90;99.90;;;;;;5057218;28;21047;-51
2023/01/14 12:27:52;;;;;;;3.80;2.20;;;4.90;99.90;;;;;;5062509;28;20751;-52
2023/01/14 12:30:36;;;;;;;3.50;2.30;;;4.90;99.90;;;;;;5053881;28;20529;-52
2023/01/14 12:33:10;;;;;;;3.47;2.33;;;4.90;99.90;;;;;;5072800;28;20475;-52
2023/01/14 12:35:46;;;;;;;2.10;1.90;;;4.90;99.90;;;;;;5101994;22;20554;-81
2023/01/14 12:46:40;;;;;;;4.43;2.20;;;5.00;99.90;;;;;;5053306;28;21002;-81
2023/01/14 12:49:07;;;;;;;2.60;1.93;;;4.90;99.90;;;;;;5053368;28;20604;-82
2023/01/14 12:51:38;;;;;;;3.17;2.60;;;5.00;99.90;;;;;;5072205;28;21064;-81
2023/01/14 12:54:11;;;;;;;1.90;1.70;;;5.00;99.90;;;;;;5073040;28;20883;-82
2023/01/14 12:56:50;;;;;;;2.73;2.13;;;5.00;99.90;;;;;;5067264;28;20440;-81
2023/01/14 12:59:25;;;;;;;2.57;1.63;;;5.00;99.90;;;;;;5073537;28;20521;-82
2023/01/14 13:01:55;;;;;;;3.07;2.73;;;5.00;99.90;;;;;;5073481;28;20539;-82
2023/01/14 13:04:26;;;;;;;2.83;1.90;;;5.00;99.90;;;;;;5066854;28;20450;-82
2023/01/14 13:06:57;;;;;;;3.13;1.97;;;5.00;99.90;;;;;;5069939;28;21029;-81
2023/01/14 13:09:28;;;;;;;1.37;1.27;;;5.10;99.90;;;;;;5069411;28;20476;-82
2023/01/14 13:11:56;;;;;;;2.10;1.63;;;5.10;99.90;;;;;;5073156;28;20488;-82
2023/01/14 13:14:37;;;;;;;1.57;1.20;;;5.20;99.90;;;;;;5069711;28;20503;-82
2023/01/14 13:17:08;;;;;;;2.90;1.87;;;5.20;99.90;;;;;;5071083;28;20471;-82
2023/01/14 13:19:53;;;;;;;2.50;1.80;;;5.20;99.90;;;;;;5066225;28;20476;-81
2023/01/14 13:22:40;;;;;;;2.20;1.70;;;5.20;99.90;;;;;;5060445;28;20513;-81
2023/01/14 13:25:22;;;;;;;2.13;1.40;;;5.20;99.90;;;;;;5056624;28;20467;-83
2023/01/14 13:27:49;;;;;;;3.13;1.80;;;5.30;99.90;;;;;;5071216;28;20438;-83
2023/01/14 13:30:41;;;;;;;2.53;1.70;;;5.30;99.90;;;;;;5070903;28;20567;-82
2023/01/14 13:33:22;;;;;;;2.43;1.50;;;5.30;99.90;;;;;;5069759;28;21082;-81
2023/01/14 13:36:19;;;;;;;1.73;1.10;;;5.30;99.90;;;;;;5065342;28;20464;-81
2023/01/14 13:39:01;;;;;;;1.80;1.47;;;5.30;99.90;;;;;;5071295;28;20479;-81
2023/01/14 13:41:36;;;;;;;2.33;1.70;;;5.30;99.90;;;;;;5063303;28;20458;-81
2023/01/14 13:44:03;;;;;;;2.10;1.73;;;5.30;99.90;;;;;;5066522;28;20519;-81
2023/01/14 13:46:35;;;;;;;1.60;1.37;;;5.30;99.90;;;;;;5069464;28;20851;-81
2023/01/14 13:49:04;;;;;;;2.50;1.73;;;5.40;99.90;;;;;;5069328;28;20963;-82
2023/01/14 13:51:39;;;;;;;2.50;1.87;;;5.40;99.90;;;;;;5062898;28;20501;-79